Time;durP1;ratioP1;P1;durP2;ratioP2;P2;SDS_P1;SDS_P2;PMS_P1;PMS_P2;Temp;Humidity;BMP_temperature;BMP_pressure;BME280_temperature;BME280_humidity;BME280_pressure;Samples;Min_cycle;Max_cycle;Signal;HPM_P1;HPM_P2
2021/07/30 00:01:18;;;;;;;;;;;25.30;48.10;;;;;;1600512;73;1145;-69
2021/07/30 00:03:19;;;;;;;;;;;25.30;48.00;;;;;;1600695;73;1142;-70
2021/07/30 00:05:21;;;;;;;;;;;25.30;48.10;;;;;;1604473;73;799;-70
2021/07/30 00:07:23;;;;;;;;;;;25.30;48.10;;;;;;1610488;73;730;-73
2021/07/30 00:09:25;;;;;;;;;;;25.30;48.00;;;;;;1601786;73;721;-69
2021/07/30 00:11:26;;;;;;;;;;;25.20;47.90;;;;;;1601840;73;1173;-69
2021/07/30 00:13:28;;;;;;;;;;;25.30;47.90;;;;;;1601230;73;1929;-70
2021/07/30 00:15:30;;;;;;;;;;;25.30;48.10;;;;;;1602474;73;686;-69
2021/07/30 00:17:32;;;;;;;;;;;25.40;48.10;;;;;;1598461;73;689;-70
2021/07/30 00:19:34;;;;;;;;;;;25.20;48.00;;;;;;1599782;73;699;-71
2021/07/30 00:21:36;;;;;;;;;;;25.30;47.90;;;;;;1602318;73;1159;-72
2021/07/30 00:23:38;;;;;;;;;;;25.20;47.90;;;;;;1603852;73;733;-69
2021/07/30 00:25:40;;;;;;;;;;;25.30;48.00;;;;;;1604510;73;732;-69
2021/07/30 00:27:42;;;;;;;;;;;25.20;48.00;;;;;;1593734;73;734;-70
2021/07/30 00:29:44;;;;;;;;;;;25.30;48.00;;;;;;1599841;73;713;-69
2021/07/30 00:31:45;;;;;;;;;;;25.30;48.10;;;;;;1600665;73;1464;-68
2021/07/30 00:33:47;;;;;;;;;;;25.20;48.10;;;;;;1600955;73;1940;-69
2021/07/30 00:35:49;;;;;;;;;;;25.30;48.00;;;;;;1602354;73;717;-69
2021/07/30 00:37:51;;;;;;;;;;;25.30;47.90;;;;;;1599158;73;684;-69
2021/07/30 00:39:53;;;;;;;;;;;25.20;47.80;;;;;;1600948;73;673;-72
2021/07/30 00:41:55;;;;;;;;;;;25.20;47.80;;;;;;1601001;73;1157;-72
2021/07/30 00:43:57;;;;;;;;;;;25.20;47.90;;;;;;1604648;73;906;-69
2021/07/30 00:45:59;;;;;;;;;;;25.20;48.00;;;;;;1600158;73;740;-70
2021/07/30 00:48:01;;;;;;;;;;;25.30;48.10;;;;;;1600097;73;742;-68
2021/07/30 00:50:02;;;;;;;;;;;25.20;48.10;;;;;;1600790;73;771;-70
2021/07/30 00:52:04;;;;;;;;;;;25.20;48.10;;;;;;1603696;73;1134;-70
2021/07/30 00:54:06;;;;;;;;;;;25.20;48.00;;;;;;1601408;73;1921;-70
2021/07/30 00:56:09;;;;;;;;;;;25.30;48.00;;;;;;1600489;73;669;-70
2021/07/30 00:58:11;;;;;;;;;;;25.20;47.90;;;;;;1603720;73;779;-71
2021/07/30 01:00:13;;;;;;;;;;;25.30;47.90;;;;;;1602798;73;1062;-71
2021/07/30 01:02:15;;;;;;;;;;;25.30;47.90;;;;;;1603119;73;654;-71
2021/07/30 01:04:16;;;;;;;;;;;25.30;47.90;;;;;;1610963;73;719;-72
2021/07/30 01:06:18;;;;;;;;;;;25.20;47.90;;;;;;1604486;73;731;-71
2021/07/30 01:08:20;;;;;;;;;;;25.20;47.90;;;;;;1605884;73;748;-71
2021/07/30 01:10:22;;;;;;;;;;;25.30;48.00;;;;;;1598286;73;1161;-71
2021/07/30 01:12:24;;;;;;;;;;;25.30;48.00;;;;;;1600373;73;705;-71
2021/07/30 01:14:26;;;;;;;;;;;25.30;47.90;;;;;;1599108;73;1937;-72
2021/07/30 01:16:28;;;;;;;;;;;25.30;47.90;;;;;;1603260;73;743;-71
2021/07/30 01:18:30;;;;;;;;;;;25.20;47.90;;;;;;1602208;73;697;-72
2021/07/30 01:20:32;;;;;;;;;;;25.30;47.90;;;;;;1602611;73;1189;-70
2021/07/30 01:22:38;;;;;;;;;;;25.30;47.90;;;;;;1602052;73;596;-71
2021/07/30 01:24:40;;;;;;;;;;;25.20;48.10;;;;;;1595777;73;1513;-69
2021/07/30 01:26:42;;;;;;;;;;;25.20;48.10;;;;;;1596572;73;677;-70
2021/07/30 01:28:44;;;;;;;;;;;25.30;48.10;;;;;;1601941;73;871;-71
2021/07/30 01:30:46;;;;;;;;;;;25.30;48.10;;;;;;1599714;73;1163;-72
2021/07/30 01:32:48;;;;;;;;;;;25.20;48.00;;;;;;1599310;73;725;-68
2021/07/30 01:34:50;;;;;;;;;;;25.20;48.00;;;;;;1602102;73;1942;-69
2021/07/30 01:36:52;;;;;;;;;;;25.30;47.80;;;;;;1600113;73;822;-69
2021/07/30 01:38:54;;;;;;;;;;;25.30;48.00;;;;;;1601006;73;713;-68
2021/07/30 01:41:08;;;;;;;;;;;25.20;47.90;;;;;;1597900;70;2026;-67
2021/07/30 01:43:00;;;;;;;;;;;25.30;48.00;;;;;;1575575;74;1720;-67
2021/07/30 01:45:02;;;;;;;;;;;25.20;48.00;;;;;;1574805;73;706;-67
2021/07/30 01:47:06;;;;;;;;;;;25.30;47.80;;;;;;1580027;73;714;-67
2021/07/30 01:49:08;;;;;;;;;;;25.30;47.70;;;;;;1583674;73;725;-67
2021/07/30 01:51:10;;;;;;;;;;;25.30;47.70;;;;;;1577165;73;1190;-68
2021/07/30 01:53:12;;;;;;;;;;;25.30;47.80;;;;;;1578612;74;789;-67
2021/07/30 01:55:14;;;;;;;;;;;25.20;47.80;;;;;;1578710;73;1950;-68
2021/07/30 01:57:19;;;;;;;;;;;25.20;47.80;;;;;;1574824;73;804;-68
2021/07/30 01:59:21;;;;;;;;;;;25.20;47.90;;;;;;1576007;74;930;-69
2021/07/30 02:01:23;;;;;;;;;;;25.20;47.80;;;;;;1579737;73;1135;-68
2021/07/30 02:03:24;;;;;;;;;;;25.20;47.80;;;;;;1577624;73;755;-68
2021/07/30 02:05:26;;;;;;;;;;;25.20;47.80;;;;;;1591924;73;729;-69
2021/07/30 02:07:28;;;;;;;;;;;25.20;47.80;;;;;;1600221;73;811;-69
2021/07/30 02:09:31;;;;;;;;;;;25.20;47.80;;;;;;1603145;73;805;-69
2021/07/30 02:11:33;;;;;;;;;;;25.20;47.70;;;;;;1599900;73;1128;-69
2021/07/30 02:15:54;;;;;;;;;;;25.20;47.70;;;;;;1597368;73;1632;-69
2021/07/30 02:17:56;;;;;;;;;;;25.20;47.70;;;;;;1601617;73;776;-69
2021/07/30 02:19:58;;;;;;;;;;;25.10;47.70;;;;;;1587946;73;724;-69
2021/07/30 02:22:00;;;;;;;;;;;25.20;47.60;;;;;;1585411;73;1152;-69
2021/07/30 02:24:01;;;;;;;;;;;25.20;47.70;;;;;;1593332;73;658;-69
2021/07/30 02:26:03;;;;;;;;;;;25.20;47.70;;;;;;1589027;73;733;-69
2021/07/30 02:28:05;;;;;;;;;;;25.10;47.70;;;;;;1589420;73;784;-69
2021/07/30 02:30:07;;;;;;;;;;;25.20;47.70;;;;;;1589404;73;770;-68
2021/07/30 02:32:09;;;;;;;;;;;25.10;47.60;;;;;;1591898;73;1127;-68
2021/07/30 02:34:11;;;;;;;;;;;25.20;47.60;;;;;;1586880;73;1923;-67
2021/07/30 02:36:13;;;;;;;;;;;25.10;47.60;;;;;;1595139;73;747;-68
2021/07/30 02:38:15;;;;;;;;;;;25.10;47.70;;;;;;1589751;73;742;-68
2021/07/30 02:40:17;;;;;;;;;;;25.20;47.60;;;;;;1600559;73;769;-69
2021/07/30 02:42:19;;;;;;;;;;;25.20;47.60;;;;;;1587196;73;1076;-70
2021/07/30 02:44:20;;;;;;;;;;;25.20;47.80;;;;;;1588890;73;775;-69
2021/07/30 02:46:22;;;;;;;;;;;25.10;47.70;;;;;;1596497;73;802;-69
2021/07/30 02:48:24;;;;;;;;;;;25.20;47.70;;;;;;1582524;73;776;-69
2021/07/30 02:50:26;;;;;;;;;;;25.20;47.70;;;;;;1597605;73;888;-69
2021/07/30 02:52:28;;;;;;;;;;;25.20;47.60;;;;;;1587706;73;734;-74
2021/07/30 02:54:30;;;;;;;;;;;25.30;47.90;;;;;;1585862;73;1929;-72
2021/07/30 02:56:32;;;;;;;;;;;25.30;48.00;;;;;;1583157;73;771;-70
2021/07/30 02:58:34;;;;;;;;;;;25.20;48.00;;;;;;1583214;73;772;-74
2021/07/30 03:00:35;;;;;;;;;;;25.30;48.00;;;;;;1582924;73;1187;-77
2021/07/30 03:02:38;;;;;;;;;;;25.20;47.90;;;;;;1588848;73;707;-72
2021/07/30 03:04:40;;;;;;;;;;;25.20;48.00;;;;;;1588336;73;746;-75
2021/07/30 03:06:42;;;;;;;;;;;25.30;48.00;;;;;;1584773;74;770;-77
2021/07/30 03:08:44;;;;;;;;;;;25.20;48.10;;;;;;1596741;73;758;-70
2021/07/30 03:10:46;;;;;;;;;;;25.30;47.80;;;;;;1597785;73;1119;-71
2021/07/30 03:12:48;;;;;;;;;;;25.30;47.60;;;;;;1584865;73;795;-72
2021/07/30 03:14:50;;;;;;;;;;;25.30;47.60;;;;;;1593497;73;1976;-69
2021/07/30 03:16:52;;;;;;;;;;;25.20;47.70;;;;;;1596884;73;797;-69
2021/07/30 03:18:53;;;;;;;;;;;25.20;47.80;;;;;;1588519;73;790;-74
2021/07/30 03:20:55;;;;;;;;;;;25.20;47.80;;;;;;1586171;73;1166;-73
2021/07/30 03:22:57;;;;;;;;;;;25.20;47.90;;;;;;1581096;73;747;-75
2021/07/30 03:24:59;;;;;;;;;;;25.20;47.80;;;;;;1587244;73;737;-75
2021/07/30 03:27:01;;;;;;;;;;;25.20;47.80;;;;;;1581583;73;1335;-73
2021/07/30 03:29:04;;;;;;;;;;;25.20;47.80;;;;;;1584302;73;778;-71
2021/07/30 03:31:06;;;;;;;;;;;25.10;47.80;;;;;;1584617;73;1140;-73
2021/07/30 03:33:08;;;;;;;;;;;25.10;47.90;;;;;;1585410;73;714;-73
2021/07/30 03:35:10;;;;;;;;;;;25.10;47.90;;;;;;1583036;73;1932;-71
2021/07/30 03:37:12;;;;;;;;;;;25.20;47.90;;;;;;1588565;73;785;-73
2021/07/30 03:39:14;;;;;;;;;;;25.10;48.00;;;;;;1598450;73;826;-74
2021/07/30 03:41:16;;;;;;;;;;;25.10;47.90;;;;;;1589014;74;1143;-74
2021/07/30 03:43:18;;;;;;;;;;;25.10;47.90;;;;;;1592505;74;766;-73
2021/07/30 03:45:20;;;;;;;;;;;25.10;48.00;;;;;;1588033;73;713;-73
2021/07/30 03:47:22;;;;;;;;;;;25.00;48.10;;;;;;1588940;73;759;-72
2021/07/30 03:49:23;;;;;;;;;;;25.00;48.20;;;;;;1586724;74;732;-71
2021/07/30 03:51:25;;;;;;;;;;;25.10;48.30;;;;;;1579535;73;1140;-71
2021/07/30 03:53:27;;;;;;;;;;;25.10;48.40;;;;;;1583157;73;651;-71
2021/07/30 03:55:32;;;;;;;;;;;25.10;48.50;;;;;;1584141;73;1930;-71
2021/07/30 03:57:34;;;;;;;;;;;25.10;48.60;;;;;;1584154;73;758;-71
2021/07/30 03:59:36;;;;;;;;;;;25.10;48.70;;;;;;1587293;74;649;-73
2021/07/30 04:01:37;;;;;;;;;;;25.10;48.70;;;;;;1584668;73;1138;-73
2021/07/30 04:03:39;;;;;;;;;;;25.10;48.70;;;;;;1585801;73;721;-73
2021/07/30 04:05:41;;;;;;;;;;;25.10;48.80;;;;;;1589279;74;804;-73
2021/07/30 04:07:43;;;;;;;;;;;25.10;48.80;;;;;;1590493;73;800;-72
2021/07/30 04:09:45;;;;;;;;;;;25.10;48.90;;;;;;1590203;73;768;-72
2021/07/30 04:11:47;;;;;;;;;;;25.10;48.90;;;;;;1590533;73;1126;-69
2021/07/30 04:13:49;;;;;;;;;;;25.10;48.90;;;;;;1591442;73;817;-73
2021/07/30 04:15:51;;;;;;;;;;;25.10;48.90;;;;;;1592243;73;1929;-73
2021/07/30 04:17:53;;;;;;;;;;;25.10;48.90;;;;;;1588882;74;756;-72
2021/07/30 04:19:54;;;;;;;;;;;25.10;49.00;;;;;;1596174;73;766;-72
2021/07/30 04:21:56;;;;;;;;;;;25.10;49.00;;;;;;1593398;73;1154;-72
2021/07/30 04:24:01;;;;;;;;;;;25.10;49.10;;;;;;1584720;73;732;-73
2021/07/30 04:26:03;;;;;;;;;;;25.20;49.10;;;;;;1580891;73;1449;-73
2021/07/30 04:28:04;;;;;;;;;;;25.10;49.20;;;;;;1580962;73;838;-74
2021/07/30 04:30:06;;;;;;;;;;;25.10;49.20;;;;;;1579978;73;919;-73
2021/07/30 04:32:09;;;;;;;;;;;25.10;49.20;;;;;;1576920;73;1081;-72
2021/07/30 04:34:11;;;;;;;;;;;25.10;49.30;;;;;;1578847;73;702;-72
2021/07/30 04:36:16;;;;;;;;;;;25.20;49.30;;;;;;1584858;73;1929;-73
2021/07/30 04:38:18;;;;;;;;;;;25.10;49.30;;;;;;1584809;73;766;-73
2021/07/30 04:40:20;;;;;;;;;;;25.10;49.30;;;;;;1591215;73;795;-72
2021/07/30 04:42:21;;;;;;;;;;;25.10;49.40;;;;;;1588218;73;1084;-73
2021/07/30 04:44:24;;;;;;;;;;;25.10;49.40;;;;;;1583197;73;724;-73
2021/07/30 04:46:25;;;;;;;;;;;25.10;49.50;;;;;;1577715;73;770;-72
2021/07/30 04:48:27;;;;;;;;;;;25.10;49.50;;;;;;1579327;73;725;-73
2021/07/30 04:50:29;;;;;;;;;;;25.10;49.50;;;;;;1581149;73;1141;-72
2021/07/30 04:52:31;;;;;;;;;;;25.20;49.60;;;;;;1580802;73;863;-73
2021/07/30 04:54:33;;;;;;;;;;;25.10;49.60;;;;;;1584189;73;1944;-73
2021/07/30 04:56:35;;;;;;;;;;;25.10;49.60;;;;;;1583939;73;684;-73
2021/07/30 04:58:37;;;;;;;;;;;25.10;49.70;;;;;;1585283;73;714;-70
2021/07/30 05:00:39;;;;;;;;;;;25.10;49.70;;;;;;1590848;73;1132;-71
2021/07/30 05:02:41;;;;;;;;;;;25.10;49.70;;;;;;1590988;73;706;-72
2021/07/30 05:04:42;;;;;;;;;;;25.10;49.80;;;;;;1584558;73;774;-73
2021/07/30 05:06:44;;;;;;;;;;;25.20;49.80;;;;;;1582225;73;797;-73
2021/07/30 05:08:46;;;;;;;;;;;25.10;50.00;;;;;;1586668;73;766;-71
2021/07/30 05:10:49;;;;;;;;;;;25.20;50.10;;;;;;1581581;73;1145;-72
2021/07/30 05:12:51;;;;;;;;;;;25.10;50.20;;;;;;1591088;73;670;-73
2021/07/30 05:14:53;;;;;;;;;;;25.20;50.30;;;;;;1589805;73;1934;-72
2021/07/30 05:16:55;;;;;;;;;;;25.30;50.40;;;;;;1588049;74;771;-71
2021/07/30 05:18:57;;;;;;;;;;;25.10;50.00;;;;;;1588014;73;759;-69
2021/07/30 05:20:59;;;;;;;;;;;25.30;49.30;;;;;;1586214;73;1191;-70
2021/07/30 05:23:00;;;;;;;;;;;25.20;49.10;;;;;;1583150;73;824;-71
2021/07/30 05:25:03;;;;;;;;;;;25.20;48.90;;;;;;1586156;73;684;-72
2021/07/30 05:27:05;;;;;;;;;;;25.10;48.80;;;;;;1580857;73;682;-72
2021/07/30 05:29:07;;;;;;;;;;;25.10;48.80;;;;;;1595517;73;739;-70
2021/07/30 05:31:11;;;;;;;;;;;25.10;48.70;;;;;;1590107;73;1140;-70
2021/07/30 05:33:13;;;;;;;;;;;25.10;48.70;;;;;;1588113;73;1876;-70
2021/07/30 05:35:15;;;;;;;;;;;25.10;48.80;;;;;;1583411;73;1938;-71
2021/07/30 05:37:16;;;;;;;;;;;25.10;48.90;;;;;;1586231;73;772;-68
2021/07/30 05:39:18;;;;;;;;;;;25.10;48.90;;;;;;1584050;73;728;-66
2021/07/30 05:41:20;;;;;;;;;;;25.10;49.00;;;;;;1590370;73;1090;-71
2021/07/30 05:43:22;;;;;;;;;;;25.10;48.90;;;;;;1594312;73;791;-72
2021/07/30 05:45:24;;;;;;;;;;;25.10;48.90;;;;;;1599102;73;715;-72
2021/07/30 05:47:26;;;;;;;;;;;25.10;48.80;;;;;;1597395;73;731;-72
2021/07/30 05:49:28;;;;;;;;;;;25.10;48.90;;;;;;1589152;73;764;-71
2021/07/30 05:51:30;;;;;;;;;;;25.10;48.90;;;;;;1590290;73;1167;-71
2021/07/30 05:53:31;;;;;;;;;;;25.10;48.90;;;;;;1580916;73;819;-71
2021/07/30 05:55:33;;;;;;;;;;;25.10;48.90;;;;;;1591711;73;1934;-70
2021/07/30 05:57:35;;;;;;;;;;;25.10;49.00;;;;;;1580749;73;798;-69
2021/07/30 05:59:37;;;;;;;;;;;25.10;49.00;;;;;;1608820;73;689;-69
2021/07/30 06:01:39;;;;;;;;;;;25.00;49.10;;;;;;1601126;73;1135;-69
2021/07/30 06:03:41;;;;;;;;;;;25.00;49.00;;;;;;1596195;73;769;-71
2021/07/30 06:05:43;;;;;;;;;;;25.10;49.10;;;;;;1597448;73;963;-69
2021/07/30 06:07:44;;;;;;;;;;;25.00;49.20;;;;;;1599017;73;792;-69
2021/07/30 06:09:46;;;;;;;;;;;25.00;49.20;;;;;;1591475;73;769;-69
2021/07/30 06:11:48;;;;;;;;;;;25.00;49.20;;;;;;1589399;73;1159;-69
2021/07/30 06:13:50;;;;;;;;;;;25.00;49.20;;;;;;1597124;73;756;-69
2021/07/30 06:15:52;;;;;;;;;;;25.00;49.20;;;;;;1593741;73;1948;-68
2021/07/30 06:17:54;;;;;;;;;;;25.00;49.30;;;;;;1599751;73;808;-70
2021/07/30 06:19:56;;;;;;;;;;;25.00;49.30;;;;;;1596978;73;801;-71
2021/07/30 06:22:00;;;;;;;;;;;25.00;49.30;;;;;;1598551;73;1167;-72
2021/07/30 06:24:02;;;;;;;;;;;25.00;49.30;;;;;;1591249;73;798;-72
2021/07/30 06:26:04;;;;;;;;;;;25.00;49.30;;;;;;1592182;73;728;-70
2021/07/30 06:28:06;;;;;;;;;;;25.00;49.30;;;;;;1592214;73;772;-70
2021/07/30 06:30:08;;;;;;;;;;;25.00;49.40;;;;;;1587601;73;692;-71
2021/07/30 06:32:10;;;;;;;;;;;25.00;49.40;;;;;;1538509;75;1130;-69
2021/07/30 06:34:12;;;;;;;;;;;25.00;49.40;;;;;;1558168;74;680;-70
2021/07/30 06:36:15;;;;;;;;;;;25.00;49.50;;;;;;1559473;74;1947;-71
2021/07/30 06:38:17;;;;;;;;;;;25.00;49.50;;;;;;1534887;76;788;-71
2021/07/30 06:40:20;;;;;;;;;;;25.00;49.50;;;;;;1532928;75;746;-72
2021/07/30 06:42:22;;;;;;;;;;;25.00;49.50;;;;;;1534425;75;1116;-70
2021/07/30 06:44:23;;;;;;;;;;;25.00;49.60;;;;;;1551362;75;787;-72
2021/07/30 06:46:26;;;;;;;;;;;25.00;49.60;;;;;;1583367;73;779;-70
2021/07/30 06:48:28;;;;;;;;;;;25.00;49.60;;;;;;1591449;73;774;-72
2021/07/30 06:50:29;;;;;;;;;;;25.00;49.60;;;;;;1595766;73;1150;-71
2021/07/30 06:52:31;;;;;;;;;;;25.00;49.70;;;;;;1590740;73;762;-70
2021/07/30 06:54:34;;;;;;;;;;;25.00;49.70;;;;;;1600514;73;785;-70
2021/07/30 06:56:36;;;;;;;;;;;25.00;49.70;;;;;;1583038;73;1932;-70
2021/07/30 06:58:38;;;;;;;;;;;25.00;49.70;;;;;;1593725;73;802;-72
2021/07/30 07:00:40;;;;;;;;;;;25.00;49.70;;;;;;1586747;73;1124;-70
2021/07/30 07:02:42;;;;;;;;;;;25.00;49.70;;;;;;1586819;73;726;-70
2021/07/30 07:04:44;;;;;;;;;;;25.00;49.70;;;;;;1595463;73;785;-70
2021/07/30 07:06:47;;;;;;;;;;;25.10;49.80;;;;;;1598465;74;967;-70
2021/07/30 07:08:49;;;;;;;;;;;25.10;49.80;;;;;;1590033;73;768;-71
2021/07/30 07:10:51;;;;;;;;;;;25.10;49.90;;;;;;1595082;73;1134;-71
2021/07/30 07:12:53;;;;;;;;;;;25.00;49.80;;;;;;1593771;73;775;-72
2021/07/30 07:14:55;;;;;;;;;;;25.00;49.90;;;;;;1587278;73;789;-70
2021/07/30 07:16:57;;;;;;;;;;;25.00;49.90;;;;;;1601453;73;1931;-70
2021/07/30 07:18:59;;;;;;;;;;;25.00;49.90;;;;;;1603597;73;783;-70
2021/07/30 07:21:00;;;;;;;;;;;25.00;50.00;;;;;;1599512;73;1099;-70
2021/07/30 07:23:02;;;;;;;;;;;25.00;50.00;;;;;;1598700;73;766;-70
2021/07/30 07:25:05;;;;;;;;;;;25.10;50.00;;;;;;1594723;73;683;-70
2021/07/30 07:27:07;;;;;;;;;;;25.10;50.00;;;;;;1598542;73;737;-71
2021/07/30 07:29:08;;;;;;;;;;;25.00;50.00;;;;;;1590264;73;757;-70
2021/07/30 07:31:10;;;;;;;;;;;25.10;50.00;;;;;;1594930;73;1198;-71
2021/07/30 07:33:12;;;;;;;;;;;25.10;50.00;;;;;;1586795;73;764;-71
2021/07/30 07:35:14;;;;;;;;;;;25.10;50.00;;;;;;1589903;73;762;-71
2021/07/30 07:37:16;;;;;;;;;;;25.10;50.10;;;;;;1584874;73;1934;-69
2021/07/30 07:39:18;;;;;;;;;;;25.10;50.10;;;;;;1597567;73;741;-70
2021/07/30 07:41:20;;;;;;;;;;;25.10;50.10;;;;;;1603750;70;2074;-71
2021/07/30 07:43:22;;;;;;;;;;;25.10;50.10;;;;;;1623364;72;690;-70
2021/07/30 07:45:24;;;;;;;;;;;25.10;50.10;;;;;;1606341;73;718;-71
2021/07/30 07:47:26;;;;;;;;;;;25.10;50.00;;;;;;1604500;72;677;-71
2021/07/30 07:49:28;;;;;;;;;;;25.10;50.00;;;;;;1612601;72;726;-72
2021/07/30 07:51:30;;;;;;;;;;;25.10;50.10;;;;;;1601877;71;1207;-71
2021/07/30 07:53:31;;;;;;;;;;;25.10;50.10;;;;;;1636696;71;811;-72
2021/07/30 07:55:33;;;;;;;;;;;25.10;50.10;;;;;;1635592;71;818;-71
2021/07/30 07:57:35;;;;;;;;;;;25.10;50.10;;;;;;1630603;71;1932;-72
2021/07/30 07:59:37;;;;;;;;;;;25.20;50.10;;;;;;1619412;71;789;-72
2021/07/30 08:01:39;;;;;;;;;;;25.20;50.10;;;;;;1627657;71;1150;-72
2021/07/30 08:03:44;;;;;;;;;;;25.10;50.10;;;;;;1616819;71;760;-72
2021/07/30 08:05:44;;;;;;;;;;;25.20;50.10;;;;;;1627214;71;1639;-72
2021/07/30 08:07:46;;;;;;;;;;;25.10;50.10;;;;;;1620266;71;814;-71
2021/07/30 08:09:48;;;;;;;;;;;25.20;50.10;;;;;;1631136;71;742;-72
2021/07/30 08:11:50;;;;;;;;;;;25.20;50.20;;;;;;1636725;71;1187;-72
2021/07/30 08:13:52;;;;;;;;;;;25.20;50.20;;;;;;1618144;71;793;-70
2021/07/30 08:15:54;;;;;;;;;;;25.20;50.20;;;;;;1629256;71;1925;-71
2021/07/30 08:17:56;;;;;;;;;;;25.20;50.10;;;;;;1624329;71;821;-72
2021/07/30 08:19:57;;;;;;;;;;;25.20;50.20;;;;;;1632374;71;765;-72
2021/07/30 08:22:00;;;;;;;;;;;25.20;50.20;;;;;;1626491;71;1140;-73
2021/07/30 08:24:01;;;;;;;;;;;25.20;50.20;;;;;;1623113;71;727;-72
2021/07/30 08:26:03;;;;;;;;;;;25.20;50.20;;;;;;1634029;71;747;-71
2021/07/30 08:28:05;;;;;;;;;;;25.30;50.20;;;;;;1624447;71;717;-70
2021/07/30 08:30:07;;;;;;;;;;;25.20;50.20;;;;;;1622654;71;814;-72
2021/07/30 08:32:09;;;;;;;;;;;25.30;50.20;;;;;;1622447;71;1099;-71
2021/07/30 08:34:12;;;;;;;;;;;25.30;50.20;;;;;;1642987;71;732;-71
2021/07/30 08:36:13;;;;;;;;;;;25.30;50.30;;;;;;1623289;71;1932;-72
2021/07/30 08:38:15;;;;;;;;;;;25.30;50.30;;;;;;1622783;71;723;-71
2021/07/30 08:40:17;;;;;;;;;;;25.20;50.30;;;;;;1613014;71;751;-71
2021/07/30 08:42:19;;;;;;;;;;;25.30;50.30;;;;;;1631374;71;1128;-71
2021/07/30 08:44:22;;;;;;;;;;;25.20;50.30;;;;;;1640695;71;564;-71
2021/07/30 08:46:24;;;;;;;;;;;25.30;50.30;;;;;;1616983;71;700;-72
2021/07/30 08:48:26;;;;;;;;;;;25.30;50.30;;;;;;1629419;71;688;-71
2021/07/30 08:50:29;;;;;;;;;;;25.30;50.30;;;;;;1614621;71;727;-70
2021/07/30 08:52:32;;;;;;;;;;;25.30;50.40;;;;;;1625392;71;1149;-71
2021/07/30 08:54:34;;;;;;;;;;;25.30;50.40;;;;;;1619451;71;686;-72
2021/07/30 08:56:37;;;;;;;;;;;25.30;50.40;;;;;;1617115;71;1920;-71
2021/07/30 08:58:39;;;;;;;;;;;25.30;50.50;;;;;;1627445;71;802;-71
2021/07/30 09:00:41;;;;;;;;;;;25.20;50.40;;;;;;1632286;71;909;-71
2021/07/30 09:02:42;;;;;;;;;;;25.20;50.40;;;;;;1626185;71;1074;-71
2021/07/30 09:04:44;;;;;;;;;;;25.20;50.40;;;;;;1614285;71;719;-72
2021/07/30 09:06:48;;;;;;;;;;;25.20;50.40;;;;;;1613873;71;760;-72
2021/07/30 09:09:03;;;;;;;;;;;25.20;50.40;;;;;;1626179;71;1886;-72
2021/07/30 09:11:05;;;;;;;;;;;25.20;50.40;;;;;;1625760;71;1150;-71
2021/07/30 09:13:26;;;;;;;;;;;25.20;50.40;;;;;;1593287;72;718;-72
2021/07/30 09:15:28;;;;;;;;;;;25.20;50.40;;;;;;1626240;71;816;-72
2021/07/30 09:17:40;;;;;;;;;;;25.30;50.50;;;;;;1632542;71;1935;-71
2021/07/30 09:20:01;;;;;;;;;;;25.20;50.50;;;;;;1636752;71;1086;-72
2021/07/30 09:22:06;;;;;;;;;;;25.20;50.50;;;;;;1634261;71;1135;-72
2021/07/30 09:24:09;;;;;;;;;;;25.20;50.50;;;;;;1623346;71;739;-73
2021/07/30 09:26:12;;;;;;;;;;;25.20;50.50;;;;;;1635644;71;711;-72
2021/07/30 09:28:13;;;;;;;;;;;25.20;50.50;;;;;;1610215;72;1420;-72
2021/07/30 09:30:15;;;;;;;;;;;25.30;50.60;;;;;;1632342;71;778;-71
2021/07/30 09:32:17;;;;;;;;;;;25.30;50.60;;;;;;1624862;71;1129;-72
2021/07/30 09:34:20;;;;;;;;;;;25.20;50.50;;;;;;1628427;71;755;-72
2021/07/30 09:36:22;;;;;;;;;;;25.20;50.60;;;;;;1635350;71;1951;-72
2021/07/30 09:38:24;;;;;;;;;;;25.20;50.50;;;;;;1626007;71;758;-72
2021/07/30 09:40:26;;;;;;;;;;;25.20;50.50;;;;;;1634671;71;754;-72
2021/07/30 09:42:36;;;;;;;;;;;25.30;50.50;;;;;;1632334;71;1105;-72
2021/07/30 09:44:53;;;;;;;;;;;25.30;50.50;;;;;;1632614;71;1996;-72
2021/07/30 09:47:02;;;;;;;;;;;25.30;50.40;;;;;;1631542;71;739;-73
2021/07/30 09:49:04;;;;;;;;;;;25.20;50.40;;;;;;1629263;71;759;-72
2021/07/30 09:51:05;;;;;;;;;;;25.30;50.50;;;;;;1631034;71;1109;-72
2021/07/30 09:53:09;;;;;;;;;;;25.30;50.40;;;;;;1626086;71;739;-72
2021/07/30 09:55:11;;;;;;;;;;;25.30;50.50;;;;;;1634804;71;733;-72
2021/07/30 09:57:14;;;;;;;;;;;25.40;50.40;;;;;;1642815;71;1932;-72
2021/07/30 09:59:16;;;;;;;;;;;25.20;50.50;;;;;;1615909;71;775;-71
2021/07/30 10:01:18;;;;;;;;;;;25.30;50.50;;;;;;1629147;71;1148;-72
2021/07/30 10:03:20;;;;;;;;;;;25.20;50.50;;;;;;1633608;71;772;-71
2021/07/30 10:05:22;;;;;;;;;;;25.20;50.50;;;;;;1631062;71;792;-72
2021/07/30 10:07:25;;;;;;;;;;;25.30;50.40;;;;;;1634378;71;818;-73
2021/07/30 10:09:27;;;;;;;;;;;25.30;50.50;;;;;;1634507;71;715;-72
2021/07/30 10:11:28;;;;;;;;;;;25.20;50.40;;;;;;1619294;71;1094;-72
2021/07/30 10:13:36;;;;;;;;;;;25.30;50.40;;;;;;1616261;71;740;-72
2021/07/30 10:15:34;;;;;;;;;;;25.20;50.40;;;;;;1628567;71;1609;-72
2021/07/30 10:17:36;;;;;;;;;;;25.30;50.30;;;;;;1619452;71;1940;-72
2021/07/30 10:19:38;;;;;;;;;;;25.30;50.30;;;;;;1621595;71;803;-72
2021/07/30 10:21:40;;;;;;;;;;;25.30;50.40;;;;;;1618697;71;1131;-72
2021/07/30 10:23:43;;;;;;;;;;;25.20;50.30;;;;;;1623793;71;756;-72
2021/07/30 10:25:52;;;;;;;;;;;25.30;50.30;;;;;;1623961;71;740;-72
2021/07/30 10:27:55;;;;;;;;;;;25.30;50.20;;;;;;1629033;71;762;-71
2021/07/30 10:30:01;;;;;;;;;;;25.30;50.20;;;;;;1620220;71;944;-72
2021/07/30 10:32:03;;;;;;;;;;;25.40;50.20;;;;;;1623198;71;1138;-72
2021/07/30 10:34:05;;;;;;;;;;;25.40;50.20;;;;;;1619070;71;713;-73
2021/07/30 10:36:07;;;;;;;;;;;25.30;50.20;;;;;;1623396;71;719;-72
2021/07/30 10:38:13;;;;;;;;;;;25.40;50.20;;;;;;1624678;71;1939;-70
2021/07/30 10:40:19;;;;;;;;;;;25.30;50.20;;;;;;1628276;71;745;-72
2021/07/30 10:42:21;;;;;;;;;;;25.30;50.30;;;;;;1622078;71;1099;-72
2021/07/30 10:44:23;;;;;;;;;;;25.30;50.30;;;;;;1628304;71;764;-70
2021/07/30 10:46:24;;;;;;;;;;;25.30;50.30;;;;;;1624052;71;747;-74
2021/07/30 10:48:28;;;;;;;;;;;25.40;50.20;;;;;;1636697;71;747;-72
2021/07/30 10:50:46;;;;;;;;;;;25.40;50.30;;;;;;1626933;71;784;-71
2021/07/30 10:52:48;;;;;;;;;;;25.50;50.30;;;;;;1631917;71;655;-71
2021/07/30 10:54:50;;;;;;;;;;;25.40;50.40;;;;;;1617723;71;684;-71
2021/07/30 10:56:52;;;;;;;;;;;25.40;50.30;;;;;;1637931;71;1987;-70
2021/07/30 10:58:58;;;;;;;;;;;25.40;50.30;;;;;;1632413;71;683;-70
2021/07/30 11:01:00;;;;;;;;;;;25.40;50.40;;;;;;1638260;71;1171;-72
2021/07/30 11:03:04;;;;;;;;;;;25.40;50.50;;;;;;1620548;71;663;-69
2021/07/30 11:05:06;;;;;;;;;;;25.40;50.60;;;;;;1617155;71;899;-68
2021/07/30 11:07:08;;;;;;;;;;;25.40;50.70;;;;;;1616826;71;760;-69
2021/07/30 11:09:17;;;;;;;;;;;25.40;50.80;;;;;;1618662;71;749;-68
2021/07/30 11:11:35;;;;;;;;;;;25.40;50.70;;;;;;1613813;71;1666;-68
2021/07/30 11:13:37;;;;;;;;;;;25.40;50.70;;;;;;1625729;71;800;-68
2021/07/30 11:15:39;;;;;;;;;;;25.50;50.60;;;;;;1622771;71;722;-68
2021/07/30 11:17:41;;;;;;;;;;;25.40;50.70;;;;;;1623550;71;1940;-69
2021/07/30 11:19:47;;;;;;;;;;;25.40;50.60;;;;;;1636821;71;756;-69
2021/07/30 11:21:49;;;;;;;;;;;25.50;50.50;;;;;;1614329;71;1158;-69
2021/07/30 11:23:51;;;;;;;;;;;25.50;50.50;;;;;;1615323;71;774;-68
2021/07/30 11:25:53;;;;;;;;;;;25.60;50.30;;;;;;1627163;71;805;-66
2021/07/30 11:27:57;;;;;;;;;;;25.50;50.20;;;;;;1612319;72;1230;-69
2021/07/30 11:29:59;;;;;;;;;;;25.50;50.20;;;;;;1628935;71;811;-68
2021/07/30 11:32:04;;;;;;;;;;;25.50;50.20;;;;;;1622752;71;1142;-68
2021/07/30 11:34:12;;;;;;;;;;;25.50;50.20;;;;;;1625284;71;739;-68
2021/07/30 11:36:14;;;;;;;;;;;25.50;50.40;;;;;;1626132;71;728;-68
2021/07/30 11:38:16;;;;;;;;;;;25.50;50.40;;;;;;1626611;71;1939;-68
2021/07/30 11:40:18;;;;;;;;;;;25.50;50.40;;;;;;1622780;71;803;-69
2021/07/30 11:42:26;;;;;;;;;;;25.50;50.50;;;;;;1635321;71;1127;-69
2021/07/30 11:44:28;;;;;;;;;;;25.50;50.60;;;;;;1638481;71;816;-69
2021/07/30 11:46:32;;;;;;;;;;;25.50;50.60;;;;;;1625014;71;767;-69
2021/07/30 11:48:34;;;;;;;;;;;25.50;50.60;;;;;;1630158;71;747;-68
2021/07/30 11:50:37;;;;;;;;;;;25.50;50.70;;;;;;1627249;71;623;-69
2021/07/30 11:52:39;;;;;;;;;;;25.50;50.60;;;;;;1638228;71;1129;-69
2021/07/30 11:54:41;;;;;;;;;;;25.50;50.50;;;;;;1618060;71;747;-69
2021/07/30 11:56:43;;;;;;;;;;;25.50;50.40;;;;;;1611612;71;846;-69
2021/07/30 11:58:58;;;;;;;;;;;25.50;50.40;;;;;;1628166;71;1916;-69
2021/07/30 12:01:09;;;;;;;;;;;25.50;50.30;;;;;;1627264;71;1224;-69
2021/07/30 12:03:18;;;;;;;;;;;25.50;50.30;;;;;;1634052;71;637;-68
2021/07/30 12:05:27;;;;;;;;;;;25.50;50.30;;;;;;1619643;71;780;-70
2021/07/30 12:07:36;;;;;;;;;;;25.50;50.30;;;;;;1641328;71;1780;-72
2021/07/30 12:09:37;;;;;;;;;;;25.50;50.30;;;;;;1638623;71;1829;-69
2021/07/30 12:11:40;;;;;;;;;;;25.40;50.20;;;;;;1638332;71;1193;-70
2021/07/30 12:13:42;;;;;;;;;;;25.50;50.20;;;;;;1619701;71;772;-69